Time;durP1;ratioP1;P1;durP2;ratioP2;P2;SDS_P1;SDS_P2;PMS_P1;PMS_P2;Temp;Humidity;BMP_temperature;BMP_pressure;BME280_temperature;BME280_humidity;BME280_pressure;Samples;Min_cycle;Max_cycle;Signal;HPM_P1;HPM_P2
2023/01/27 00:02:14;;;;;;;4.23;3.10;;;;;;;0.06;97.20;101734.25;4934793;29;20051;-68
2023/01/27 00:04:40;;;;;;;3.63;2.00;;;;;;;0.24;96.58;101756.94;4935360;29;20395;-68
2023/01/27 00:07:05;;;;;;;2.20;2.00;;;;;;;0.26;95.88;101768.19;4935280;29;20043;-69
2023/01/27 00:09:31;;;;;;;4.17;3.80;;;;;;;0.21;95.86;101757.09;4934981;29;20193;-71
2023/01/27 00:14:40;;;;;;;3.20;3.00;;;;;;;0.09;95.90;101764.69;4935106;29;20036;-69
2023/01/27 00:17:05;;;;;;;4.97;4.47;;;;;;;0.06;96.44;101755.19;4934961;29;20262;-69
2023/01/27 00:19:31;;;;;;;4.33;4.00;;;;;;;-0.04;96.34;101748.66;4934527;29;20063;-69
2023/01/27 00:24:41;;;;;;;2.57;2.30;;;;;;;0.09;96.09;101760.28;4934362;29;20038;-71
2023/01/27 00:27:08;;;;;;;1.90;1.67;;;;;;;0.06;94.76;101778.78;4934455;29;20264;-69
2023/01/27 00:29:38;;;;;;;1.90;1.80;;;;;;;0.03;95.52;101760.56;4934994;29;20322;-68
2023/01/27 00:34:48;;;;;;;2.83;1.93;;;;;;;0.04;95.47;101757.03;4934451;29;20645;-70
2023/01/27 00:37:14;;;;;;;3.07;1.50;;;;;;;-0.08;96.06;101747.09;4917184;29;20342;-69
2023/01/27 00:39:40;;;;;;;1.77;1.37;;;;;;;-0.13;95.75;101756.94;4934544;29;20062;-69
2023/01/27 00:42:06;;;;;;;1.87;1.40;;;;;;;-0.13;95.62;101775.28;4934076;29;20130;-68
2023/01/27 00:44:32;;;;;;;1.60;1.40;;;;;;;-0.13;96.41;101775.28;4933483;29;20040;-69
2023/01/27 00:46:57;;;;;;;3.10;2.13;;;;;;;-0.11;96.60;101776.06;4933333;29;20348;-69
2023/01/27 00:49:23;;;;;;;1.80;1.70;;;;;;;-0.11;96.78;101784.75;4933156;29;20027;-67
2023/01/27 00:51:49;;;;;;;2.90;2.00;;;;;;;-0.08;97.13;101789.84;4933195;29;20042;-70
2023/01/27 00:54:15;;;;;;;3.47;1.80;;;;;;;0.01;96.91;101787.75;4932648;29;20264;-68
2023/01/27 00:56:41;;;;;;;2.33;2.13;;;;;;;0.07;96.39;101783.09;4933504;29;20027;-71
2023/01/27 00:59:06;;;;;;;1.77;1.67;;;;;;;0.07;95.97;101790.94;4933529;29;20259;-70
2023/01/27 01:01:33;;;;;;;2.67;1.93;;;;;;;0.08;95.72;101797.88;4935437;29;20039;-71
2023/01/27 01:03:59;;;;;;;1.73;1.60;;;;;;;0.11;95.19;101810.84;4939752;29;20429;-70
2023/01/27 01:06:26;;;;;;;3.73;1.80;;;;;;;0.03;95.53;101806.88;4941020;29;20260;-70
2023/01/27 01:08:51;;;;;;;1.53;1.43;;;;;;;0.00;95.52;101807.88;4940350;29;20806;-69
2023/01/27 01:11:19;;;;;;;1.40;1.30;;;;;;;-0.02;94.28;101815.75;4940245;29;20263;-68
2023/01/27 01:13:45;;;;;;;2.03;1.60;;;;;;;-0.04;94.96;101817.59;4940743;29;20114;-70
2023/01/27 01:16:19;;;;;;;1.67;1.57;;;;;;;-0.19;93.96;101799.13;4938514;29;20302;-70
2023/01/27 01:18:45;;;;;;;2.27;1.83;;;;;;;-0.14;94.42;101815.47;4933434;29;20082;-69
2023/01/27 01:21:12;;;;;;;2.33;1.87;;;;;;;-0.16;94.71;101822.53;4932848;29;20256;-70
2023/01/27 01:23:40;;;;;;;1.93;1.73;;;;;;;-0.15;94.67;101821.63;4935255;29;20259;-69
2023/01/27 01:26:06;;;;;;;1.60;1.50;;;;;;;-0.27;94.21;101816.94;4936269;29;20295;-69
2023/01/27 01:28:32;;;;;;;3.13;1.83;;;;;;;-0.34;94.65;101829.44;4936287;29;20343;-70
2023/01/27 01:31:09;;;;;;;1.73;1.63;;;;;;;-0.37;94.71;101838.25;4935086;29;20027;-68
2023/01/27 01:33:35;;;;;;;1.73;1.63;;;;;;;-0.46;94.19;101836.06;4936395;29;20055;-69
2023/01/27 01:36:10;;;;;;;1.90;1.80;;;;;;;-0.49;94.61;101846.66;4936317;29;20655;-69
2023/01/27 01:38:35;;;;;;;2.00;1.70;;;;;;;-0.57;95.34;101840.06;4936255;29;20759;-69
2023/01/27 01:41:01;;;;;;;1.90;1.80;;;;;;;-0.63;95.64;101849.00;4934997;29;20290;-68
2023/01/27 01:43:27;;;;;;;2.13;1.93;;;;;;;-0.70;95.99;101842.31;4889037;29;1398980;-69
2023/01/27 01:45:58;;;;;;;2.20;1.90;;;;;;;-0.78;96.06;101841.81;4937081;29;20122;-69
2023/01/27 01:48:32;;;;;;;2.30;2.10;;;;;;;-0.83;97.40;101846.38;4936884;29;20386;-68
2023/01/27 01:51:12;;;;;;;2.10;1.90;;;;;;;-0.86;97.80;101862.19;4937791;29;20251;-70
2023/01/27 01:53:46;;;;;;;2.30;2.10;;;;;;;-0.88;97.11;101864.84;4938418;29;20272;-70
2023/01/27 01:56:18;;;;;;;4.10;1.90;;;;;;;-0.83;97.81;101867.31;4921583;29;20311;-69
2023/01/27 01:58:46;;;;;;;2.67;2.10;;;;;;;-0.88;97.64;101856.16;4938465;29;20252;-68
2023/01/27 02:01:14;;;;;;;2.90;2.20;;;;;;;-0.87;97.66;101850.84;4938435;29;20264;-70
2023/01/27 02:03:43;;;;;;;2.20;2.00;;;;;;;-0.80;98.27;101852.31;4938280;29;20275;-69
2023/01/27 02:06:10;;;;;;;2.67;1.80;;;;;;;-0.63;98.15;101864.69;4937884;29;20043;-69
2023/01/27 02:08:40;;;;;;;1.90;1.80;;;;;;;-0.52;97.84;101867.72;4937955;29;20028;-69
2023/01/27 02:11:07;;;;;;;2.73;2.53;;;;;;;-0.45;97.69;101866.53;4936876;29;20274;-68
2023/01/27 02:13:33;;;;;;;2.10;2.00;;;;;;;-0.40;97.40;101868.97;4936903;29;20358;-70
2023/01/27 02:15:59;;;;;;;1.70;1.60;;;;;;;-0.64;96.27;101842.06;4938253;29;20302;-70
2023/01/27 02:18:25;;;;;;;1.90;1.60;;;;;;;-0.47;95.98;101891.94;4937536;29;20027;-70
2023/01/27 02:20:53;;;;;;;2.30;2.10;;;;;;;-0.57;96.21;101882.78;4937051;29;20441;-68
2023/01/27 02:23:43;;;;;;;1.90;1.70;;;;;;;-0.60;96.32;101890.72;4937830;29;20288;-69
2023/01/27 02:26:15;;;;;;;2.27;2.07;;;;;;;-0.58;96.34;101893.28;4936334;29;20425;-69
2023/01/27 02:28:41;;;;;;;2.40;1.93;;;;;;;-0.59;95.64;101887.19;4936338;29;20264;-70
2023/01/27 02:31:06;;;;;;;3.30;1.60;;;;;;;-0.55;96.35;101888.78;4937072;29;20299;-69
2023/01/27 02:33:32;;;;;;;2.57;2.37;;;;;;;-0.56;96.27;101886.25;4936057;29;20503;-68
2023/01/27 02:36:04;;;;;;;1.83;1.67;;;;;;;-0.55;96.68;101899.25;4918914;29;20036;-70
2023/01/27 02:38:35;;;;;;;2.50;2.30;;;;;;;-0.64;96.13;101897.00;4936286;29;20469;-67
2023/01/27 02:41:10;;;;;;;2.20;2.00;;;;;;;-0.73;96.06;101884.31;4936672;29;20266;-67
2023/01/27 02:43:36;;;;;;;2.87;2.40;;;;;;;-0.84;96.31;101891.75;4936254;29;20286;-68
2023/01/27 02:46:02;;;;;;;2.37;2.17;;;;;;;-0.89;97.61;101914.59;4935709;29;20295;-70
2023/01/27 02:48:27;;;;;;;2.00;1.80;;;;;;;-0.95;98.03;101905.25;4936138;29;20402;-70
2023/01/27 02:50:52;;;;;;;2.40;2.17;;;;;;;-0.87;98.06;101908.38;4935846;29;20031;-70
2023/01/27 02:53:18;;;;;;;2.33;1.70;;;;;;;-0.77;97.66;101911.50;4936261;29;20097;-71
2023/01/27 02:55:43;;;;;;;2.33;1.90;;;;;;;-0.78;97.54;101910.66;4936565;29;20031;-69
2023/01/27 02:58:09;;;;;;;2.47;1.60;;;;;;;-0.73;97.10;101911.31;4935746;29;20074;-68
2023/01/27 03:00:35;;;;;;;1.97;1.83;;;;;;;-0.72;96.94;101917.41;4935729;29;20086;-69
2023/01/27 03:03:00;;;;;;;2.80;2.00;;;;;;;-0.76;96.91;101921.06;4935752;29;20055;-69
2023/01/27 03:05:27;;;;;;;2.30;2.10;;;;;;;-0.81;97.48;101929.09;4935462;29;20049;-69
2023/01/27 03:07:52;;;;;;;2.00;1.73;;;;;;;-0.82;97.99;101943.09;4935724;29;20384;-69
2023/01/27 03:10:18;;;;;;;2.17;2.00;;;;;;;-0.78;97.58;101949.91;4935706;29;20024;-70
2023/01/27 03:12:44;;;;;;;3.30;2.50;;;;;;;-0.86;97.82;101924.97;4935629;29;20027;-68
2023/01/27 03:18:12;;;;;;;2.30;2.10;;;;;;;-1.09;97.55;101895.34;4935236;29;20639;-68
2023/01/27 03:21:01;;;;;;;2.43;2.23;;;;;;;-0.96;97.16;101933.16;4935761;29;20263;-69
2023/01/27 03:23:27;;;;;;;3.23;2.53;;;;;;;-1.10;97.45;101935.47;4935394;29;20616;-69
2023/01/27 03:25:52;;;;;;;2.50;2.30;;;;;;;-1.22;98.13;101928.06;4935293;29;20391;-68
2023/01/27 03:28:18;;;;;;;3.03;2.43;;;;;;;-1.16;98.24;101943.53;4935218;29;20031;-67
2023/01/27 03:30:43;;;;;;;2.97;2.77;;;;;;;-1.22;98.04;101932.44;4935524;29;20476;-69
2023/01/27 03:33:09;;;;;;;4.17;2.63;;;;;;;-1.11;98.45;101939.00;4935256;29;20067;-69
2023/01/27 03:35:47;;;;;;;3.23;2.93;;;;;;;-1.13;98.89;101935.59;4935006;29;20357;-67
2023/01/27 03:46:28;;;;;;;3.93;2.80;;;;;;;-1.39;99.35;101954.88;4934814;29;20811;-68
2023/01/27 03:48:55;;;;;;;2.90;2.70;;;;;;;-1.43;99.67;101965.50;4934844;29;20272;-70
2023/01/27 03:51:23;;;;;;;3.13;2.90;;;;;;;-1.46;100.00;101949.91;4934760;29;20031;-68
2023/01/27 03:53:49;;;;;;;2.85;2.53;;;;;;;-1.32;99.44;101963.31;4934896;29;20376;-70
2023/01/27 03:56:16;;;;;;;3.03;2.80;;;;;;;-1.33;99.76;101964.22;4934872;29;20519;-67
2023/01/27 03:58:42;;;;;;;3.03;2.73;;;;;;;-1.29;100.00;101957.97;4934889;29;20410;-68
2023/01/27 04:01:14;;;;;;;2.70;2.50;;;;;;;-1.12;100.00;101966.03;4934694;29;20735;-68
2023/01/27 04:09:16;;;;;;;3.70;2.80;;;;;;;-1.22;99.05;101932.44;4934796;29;20268;-69
2023/01/27 04:11:59;;;;;;;3.30;2.87;;;;;;;-0.90;98.54;101991.34;4934651;29;20687;-69
2023/01/27 04:14:40;;;;;;;2.80;2.50;;;;;;;-0.85;98.25;101986.81;4934653;29;20259;-69
2023/01/27 04:17:11;;;;;;;3.13;2.83;;;;;;;-0.85;97.52;101987.66;4931523;29;20271;-68
2023/01/27 04:19:37;;;;;;;3.07;2.87;;;;;;;-0.86;97.55;101985.97;4915710;29;20266;-70
2023/01/27 04:22:03;;;;;;;3.63;2.60;;;;;;;-0.80;96.92;102003.19;4915589;29;20256;-67
2023/01/27 04:24:28;;;;;;;2.87;2.57;;;;;;;-0.81;97.33;102001.47;4915119;29;20389;-69
2023/01/27 04:26:59;;;;;;;2.97;2.77;;;;;;;-0.88;96.96;101994.75;4898238;29;20260;-71
2023/01/27 04:29:28;;;;;;;2.97;2.70;;;;;;;-0.95;96.77;101997.63;4915254;29;20035;-70
2023/01/27 04:31:54;;;;;;;2.72;2.53;;;;;;;-1.04;96.92;101995.34;4913241;29;20359;-70
2023/01/27 04:34:20;;;;;;;3.23;2.93;;;;;;;-1.06;97.38;102005.03;4915593;29;20028;-73
2023/01/27 04:36:46;;;;;;;3.60;2.90;;;;;;;-1.07;97.87;102005.09;4915348;29;20357;-69
2023/01/27 04:39:15;;;;;;;3.00;2.70;;;;;;;-1.13;98.12;102010.56;4916000;29;20040;-72
2023/01/27 04:41:42;;;;;;;3.97;3.47;;;;;;;-1.20;98.58;102009.91;4915039;29;20308;-70
2023/01/27 04:44:09;;;;;;;4.00;2.50;;;;;;;-1.19;99.48;102014.22;4915954;29;20040;-70
2023/01/27 04:46:38;;;;;;;3.57;3.00;;;;;;;-1.13;100.00;102016.63;4915422;29;20303;-71
2023/01/27 04:49:04;;;;;;;;;;;;;;;-0.99;99.98;102024.78;4915656;29;20268;-71
2023/01/27 04:51:31;;;;;;;4.80;3.70;;;;;;;-1.07;99.63;101992.00;4915255;29;19938;-70
2023/01/27 04:53:58;;;;;;;3.83;3.20;;;;;;;-0.93;98.59;102008.88;4915305;29;20051;-71
2023/01/27 04:56:27;;;;;;;3.60;3.30;;;;;;;-0.87;97.93;102017.38;4915606;29;20283;-72
2023/01/27 04:58:56;;;;;;;3.77;3.23;;;;;;;-0.93;97.62;102019.31;4918238;29;20834;-71
2023/01/27 05:01:22;;;;;;;6.93;3.23;;;;;;;-1.23;97.54;102004.78;4918152;29;20808;-69
2023/01/27 05:03:47;;;;;;;3.33;2.90;;;;;;;-1.13;97.54;102037.53;4918889;29;20024;-69
2023/01/27 05:06:13;;;;;;;4.83;3.40;;;;;;;-1.26;97.29;102039.72;4920589;29;20032;-74
2023/01/27 05:08:41;;;;;;;4.67;3.33;;;;;;;-1.24;97.82;102055.34;4922964;29;20051;-76
2023/01/27 05:11:08;;;;;;;7.63;4.07;;;;;;;-1.24;98.78;102050.13;4905998;29;20265;-75
2023/01/27 05:13:34;;;;;;;4.93;2.90;;;;;;;-1.24;98.01;102039.69;4925203;29;20291;-76
2023/01/27 05:16:11;;;;;;;5.20;3.17;;;;;;;-1.25;98.37;102033.59;4927218;29;20276;-73
2023/01/27 05:18:38;;;;;;;3.40;3.10;;;;;;;-1.18;97.59;102039.44;4931197;29;20103;-77
2023/01/27 05:21:04;;;;;;;4.33;3.13;;;;;;;-1.10;97.69;102050.50;4923817;29;20260;-73
2023/01/27 05:23:36;;;;;;;5.33;4.10;;;;;;;-1.12;96.88;102054.94;4918726;29;20653;-72
2023/01/27 05:26:10;;;;;;;3.40;3.10;;;;;;;-1.10;96.28;102054.88;4919185;29;20707;-72
2023/01/27 05:28:36;;;;;;;5.30;3.20;;;;;;;-1.07;96.54;102053.00;4918714;29;20279;-71
2023/01/27 05:31:05;;;;;;;4.33;3.50;;;;;;;-1.02;96.11;102061.50;4902040;29;20283;-72
2023/01/27 05:33:34;;;;;;;5.47;3.13;;;;;;;-1.04;96.89;102063.34;4901626;29;20831;-71
2023/01/27 05:36:02;;;;;;;3.42;3.13;;;;;;;-0.99;96.85;102076.25;4918417;29;20075;-69
2023/01/27 05:38:28;;;;;;;6.95;3.40;;;;;;;-0.99;96.91;102066.63;4918141;29;20035;-70
2023/01/27 05:40:55;;;;;;;6.87;4.20;;;;;;;-0.93;97.14;102087.31;4918124;29;20087;-69
2023/01/27 05:43:26;;;;;;;5.37;3.67;;;;;;;-1.00;96.79;102067.53;4899299;29;20288;-71
2023/01/27 05:45:55;;;;;;;3.70;3.35;;;;;;;-0.85;96.75;102088.81;4919449;29;20776;-72
2023/01/27 05:48:23;;;;;;;4.15;3.38;;;;;;;-0.86;96.52;102089.72;4919660;29;20384;-70
2023/01/27 05:50:57;;;;;;;4.35;3.25;;;;;;;-0.88;96.23;102099.38;4902968;29;20468;-68
2023/01/27 05:53:26;;;;;;;4.00;3.20;;;;;;;-1.00;94.79;102083.22;4887164;29;20100;-69
2023/01/27 05:55:54;;;;;;;3.83;3.53;;;;;;;-1.24;94.71;102055.34;4902690;29;20260;-70
2023/01/27 05:58:24;;;;;;;4.57;4.17;;;;;;;-1.13;95.93;102105.50;4923698;29;20024;-69
2023/01/27 06:00:49;;;;;;;5.87;3.83;;;;;;;-1.22;97.20;102099.75;4885669;29;20912;-69
2023/01/27 06:03:15;;;;;;;3.40;3.17;;;;;;;-1.10;96.92;102104.56;4900829;29;20351;-72
2023/01/27 06:05:55;;;;;;;3.60;3.30;;;;;;;-1.11;96.09;102103.69;4916778;29;20040;-70
2023/01/27 06:08:25;;;;;;;5.57;3.47;;;;;;;-1.09;95.65;102112.34;4899770;29;20087;-71
2023/01/27 06:11:18;;;;;;;4.33;3.93;;;;;;;-1.06;95.39;102114.84;4917923;29;20311;-73
2023/01/27 06:13:44;;;;;;;9.45;4.10;;;;;;;-1.08;94.99;102128.88;4917332;29;20379;-73
2023/01/27 06:16:12;;;;;;;4.87;3.90;;;;;;;-1.10;95.64;102126.31;4917125;29;20119;-74
2023/01/27 06:18:38;;;;;;;5.55;5.15;;;;;;;-1.17;96.12;102130.03;4916678;29;20028;-71
2023/01/27 06:21:07;;;;;;;9.67;4.97;;;;;;;-1.29;95.82;102120.03;4917693;29;20035;-69
2023/01/27 06:23:33;;;;;;;4.35;3.95;;;;;;;-1.18;96.89;102132.69;4918115;29;20385;-69
2023/01/27 06:26:03;;;;;;;4.83;4.37;;;;;;;-1.13;96.96;102128.19;4918007;29;20127;-71
2023/01/27 06:28:29;;;;;;;4.70;4.30;;;;;;;-1.09;96.39;102143.72;4900717;29;20032;-70
2023/01/27 06:30:56;;;;;;;4.13;3.50;;;;;;;-1.09;96.01;102142.84;4917624;29;20256;-70
2023/01/27 06:33:21;;;;;;;4.57;4.03;;;;;;;-1.01;95.81;102144.28;4917230;29;20035;-68
2023/01/27 06:35:47;;;;;;;3.63;3.30;;;;;;;-1.04;96.11;102147.00;4917148;29;20260;-71
2023/01/27 06:38:14;;;;;;;7.13;4.13;;;;;;;-1.01;95.78;102144.28;4917062;29;20073;-68
2023/01/27 06:40:40;;;;;;;5.70;3.90;;;;;;;-1.04;95.79;102149.63;4900226;29;20043;-68
2023/01/27 06:43:15;;;;;;;4.67;3.87;;;;;;;-0.99;96.17;102154.69;4917327;29;20288;-70
2023/01/27 06:45:41;;;;;;;4.60;4.20;;;;;;;-1.03;96.24;102160.94;4917292;29;20296;-69
2023/01/27 06:48:07;;;;;;;5.07;4.40;;;;;;;-1.07;95.42;102168.03;4917245;29;20806;-69
2023/01/27 06:50:32;;;;;;;7.77;5.20;;;;;;;-1.10;96.51;102162.91;4917640;29;20032;-70
2023/01/27 06:53:04;;;;;;;4.77;4.37;;;;;;;-1.07;96.12;102173.28;4917472;29;20273;-68
2023/01/27 06:55:30;;;;;;;8.70;5.50;;;;;;;-1.06;96.56;102169.75;4917742;29;20036;-70
2023/01/27 06:57:56;;;;;;;7.20;4.47;;;;;;;-1.02;96.54;102180.94;4917110;29;20272;-69
2023/01/27 07:00:21;;;;;;;5.20;4.80;;;;;;;-1.00;96.54;102177.38;4916836;29;20264;-69
2023/01/27 07:02:47;;;;;;;6.60;4.27;;;;;;;-0.97;95.40;102179.88;4916685;29;20055;-69
2023/01/27 07:05:16;;;;;;;10.53;5.80;;;;;;;-0.99;95.17;102186.91;4905027;29;20373;-69
2023/01/27 07:07:44;;;;;;;6.57;5.57;;;;;;;-1.05;95.29;102192.38;4907576;29;20356;-69
2023/01/27 07:10:12;;;;;;;6.47;5.90;;;;;;;-1.06;94.77;102195.88;4923538;29;20296;-70
2023/01/27 07:12:39;;;;;;;7.95;4.80;;;;;;;-1.14;95.34;102184.84;4907375;29;20044;-69
2023/01/27 07:15:12;;;;;;;8.67;4.90;;;;;;;-1.12;95.52;102185.66;4925381;29;20032;-72
2023/01/27 07:17:38;;;;;;;7.47;5.07;;;;;;;-1.06;94.91;102198.50;4892904;29;20375;-69
2023/01/27 07:20:05;;;;;;;5.50;4.90;;;;;;;-1.10;95.50;102212.59;4921726;29;20292;-70
2023/01/27 07:22:32;;;;;;;9.13;6.30;;;;;;;-1.24;95.33;102196.50;4917148;29;20059;-69
2023/01/27 07:24:58;;;;;;;8.23;4.67;;;;;;;-1.37;95.07;102183.03;4920927;29;20346;-68
2023/01/27 07:27:24;;;;;;;7.50;4.60;;;;;;;-1.31;94.39;102211.56;4920486;29;20280;-69
2023/01/27 07:29:50;;;;;;;5.03;4.63;;;;;;;-1.36;95.30;102207.38;4916861;29;20039;-72
2023/01/27 07:32:16;;;;;;;5.30;3.70;;;;;;;-1.39;94.40;102223.19;4918831;29;20612;-73
2023/01/27 07:34:49;;;;;;;7.10;4.00;;;;;;;-1.48;95.38;102207.78;4908171;29;20275;-71
2023/01/27 07:37:15;;;;;;;3.73;3.43;;;;;;;-1.48;95.45;102199.94;4921871;29;20378;-71
2023/01/27 07:39:49;;;;;;;5.70;3.80;;;;;;;-1.44;95.71;102212.03;4903601;29;20749;-74
2023/01/27 07:42:18;;;;;;;5.00;4.30;;;;;;;-1.30;95.86;102212.41;4918738;29;20048;-70
2023/01/27 07:44:46;;;;;;;6.73;3.70;;;;;;;-1.19;96.47;102223.34;4919480;29;20308;-69
2023/01/27 07:47:11;;;;;;;5.17;4.20;;;;;;;-1.06;96.49;102235.13;4906533;29;20328;-71
2023/01/27 07:49:45;;;;;;;6.43;4.60;;;;;;;-1.02;96.09;102241.94;4905870;29;20539;-72
2023/01/27 07:52:11;;;;;;;6.93;4.50;;;;;;;-1.04;95.97;102235.06;4908536;29;20112;-73
2023/01/27 07:54:37;;;;;;;4.97;4.50;;;;;;;-1.06;96.22;102242.97;4915924;29;20732;-72
2023/01/27 07:57:02;;;;;;;7.20;5.10;;;;;;;-0.99;95.53;102244.44;4907655;29;20028;-71
2023/01/27 07:59:33;;;;;;;5.07;4.17;;;;;;;-1.14;95.62;102221.44;4924663;29;20052;-73
2023/01/27 08:01:59;;;;;;;4.90;4.50;;;;;;;-1.06;95.28;102248.19;4901948;29;20042;-72
2023/01/27 08:04:25;;;;;;;7.70;4.70;;;;;;;-1.17;95.12;102231.97;4901664;29;20263;-72
2023/01/27 08:06:51;;;;;;;4.17;3.70;;;;;;;-1.12;95.25;102263.22;4917793;29;20502;-75
2023/01/27 08:09:16;;;;;;;5.90;3.50;;;;;;;-1.26;96.26;102235.78;4917197;29;20277;-71
2023/01/27 08:11:42;;;;;;;5.23;3.80;;;;;;;-1.15;96.11;102251.13;4934434;29;20028;-72
2023/01/27 08:14:07;;;;;;;4.40;3.33;;;;;;;-1.16;95.99;102248.53;4917716;29;20040;-74
2023/01/27 08:16:33;;;;;;;3.70;3.40;;;;;;;-1.15;94.70;102253.72;4901682;29;20502;-73
2023/01/27 08:18:58;;;;;;;4.67;3.30;;;;;;;-1.20;94.91;102260.00;4934714;29;20381;-72
2023/01/27 08:21:24;;;;;;;3.80;3.37;;;;;;;-1.08;95.46;102263.06;4934602;29;20035;-72
2023/01/27 08:23:52;;;;;;;4.57;3.60;;;;;;;-1.04;94.82;102261.19;4917528;29;20506;-71
2023/01/27 08:26:42;;;;;;;3.75;3.45;;;;;;;-1.10;94.86;102246.59;4919407;29;20044;-72
2023/01/27 08:29:14;;;;;;;5.60;3.50;;;;;;;-1.10;94.52;102236.13;4898751;29;20029;-71
2023/01/27 08:31:40;;;;;;;7.97;3.80;;;;;;;-0.89;94.25;102275.50;4896682;29;20268;-71
2023/01/27 08:34:06;;;;;;;4.37;4.03;;;;;;;-0.90;93.75;102284.25;4899677;29;20035;-71
2023/01/27 08:36:31;;;;;;;7.67;3.57;;;;;;;-0.97;93.67;102276.63;4900481;29;20269;-71
2023/01/27 08:38:57;;;;;;;6.60;3.03;;;;;;;-0.93;93.65;102291.31;4900804;29;20461;-71
2023/01/27 08:41:26;;;;;;;4.73;3.43;;;;;;;-0.97;93.77;102294.94;4902904;29;20029;-68
2023/01/27 08:43:54;;;;;;;5.00;3.30;;;;;;;-1.03;94.07;102295.16;4933051;29;20040;-69
2023/01/27 08:46:20;;;;;;;4.95;3.35;;;;;;;-1.24;94.02;102274.94;4910393;29;20300;-71
2023/01/27 08:48:50;;;;;;;3.97;3.57;;;;;;;-1.14;95.23;102302.50;4911092;29;20028;-71
2023/01/27 08:51:19;;;;;;;4.40;3.43;;;;;;;-1.05;95.10;102301.34;4912572;29;20036;-72
2023/01/27 08:53:45;;;;;;;;;;;;;;;-0.96;94.68;102309.72;4873868;29;20349;-72
2023/01/27 08:56:16;;;;;;;3.83;3.47;;;;;;;-1.08;94.28;102312.75;4888963;29;19912;-71
2023/01/27 08:58:47;;;;;;;3.77;3.47;;;;;;;-1.24;94.56;102301.06;4877817;29;20489;-71
2023/01/27 09:01:19;;;;;;;3.50;3.20;;;;;;;-1.19;94.88;102308.75;4877413;29;20301;-73
2023/01/27 09:03:45;;;;;;;3.37;3.07;;;;;;;-1.10;94.38;102314.56;4904122;29;20667;-72
2023/01/27 09:06:16;;;;;;;4.13;3.60;;;;;;;-1.12;94.58;102313.75;4892922;29;20289;-71
2023/01/27 09:09:07;;;;;;;5.80;3.90;;;;;;;-1.14;94.16;102305.13;4895677;29;20041;-71
2023/01/27 09:11:35;;;;;;;4.40;3.93;;;;;;;-1.15;94.56;102294.72;4912594;29;20352;-72
2023/01/27 09:14:01;;;;;;;4.10;3.57;;;;;;;-1.17;94.17;102310.41;4899447;29;20305;-71
2023/01/27 09:16:42;;;;;;;7.37;4.27;;;;;;;-1.22;94.61;102308.84;4916547;29;20261;-71
2023/01/27 09:19:23;;;;;;;5.37;4.40;;;;;;;-1.10;95.04;102304.09;4916416;29;20309;-73
2023/01/27 09:21:49;;;;;;;8.32;5.07;;;;;;;-1.06;94.69;102299.63;4883745;29;20836;-71
2023/01/27 09:24:18;;;;;;;7.57;4.40;;;;;;;-1.02;94.87;102302.09;4892467;29;20032;-70
2023/01/27 09:26:44;;;;;;;6.32;3.75;;;;;;;-1.07;94.51;102296.16;4906778;29;20032;-71
2023/01/27 09:29:16;;;;;;;4.37;3.83;;;;;;;-1.10;93.82;102314.56;4904053;29;20044;-70
2023/01/27 09:31:41;;;;;;;7.27;2.80;;;;;;;-1.11;93.96;102319.84;4955096;29;20328;-68
2023/01/27 09:34:11;;;;;;;2.78;2.58;;;;;;;-1.13;94.23;102311.19;4900075;29;20723;-70
2023/01/27 09:36:44;;;;;;;4.07;3.60;;;;;;;-1.21;94.39;102295.75;4939042;29;20117;-71
2023/01/27 09:39:11;;;;;;;3.67;3.20;;;;;;;-1.11;94.24;102312.84;4937791;29;20039;-70
2023/01/27 09:41:53;;;;;;;5.67;4.27;;;;;;;-1.10;94.20;102319.78;4920512;29;20272;-72
2023/01/27 09:44:26;;;;;;;6.70;4.93;;;;;;;-1.43;94.42;102266.00;4937230;29;20306;-69
2023/01/27 09:47:00;;;;;;;4.60;4.20;;;;;;;-0.98;94.34;102334.22;4937358;29;20354;-72
2023/01/27 09:49:49;;;;;;;3.10;2.80;;;;;;;-0.95;94.35;102345.44;4937248;29;20346;-72
2023/01/27 09:52:49;;;;;;;3.53;3.23;;;;;;;-1.06;93.75;102336.22;4942715;29;20267;-73
2023/01/27 09:55:33;;;;;;;4.70;3.27;;;;;;;-1.19;95.44;102330.53;4939836;29;20728;-71
2023/01/27 09:58:04;;;;;;;3.63;3.33;;;;;;;-1.11;96.24;102346.84;4937155;29;20256;-70
2023/01/27 10:00:36;;;;;;;4.17;3.77;;;;;;;-1.05;96.17;102343.16;4936960;29;20279;-70
2023/01/27 10:03:22;;;;;;;4.43;3.40;;;;;;;-1.01;95.78;102340.41;4936148;29;20399;-71
2023/01/27 10:05:53;;;;;;;7.00;3.83;;;;;;;-0.93;95.40;102332.28;4936800;29;20299;-71
2023/01/27 10:08:37;;;;;;;6.97;3.37;;;;;;;-0.86;95.06;102330.34;4936548;29;20268;-72
2023/01/27 10:11:31;;;;;;;4.07;3.77;;;;;;;-0.78;95.25;102330.94;4936947;29;20282;-72
2023/01/27 10:14:13;;;;;;;5.57;3.53;;;;;;;-0.71;94.49;102332.44;4936299;29;20267;-71
2023/01/27 10:17:05;;;;;;;5.90;3.37;;;;;;;-0.80;93.81;102323.16;4955087;29;20303;-72
2023/01/27 10:19:42;;;;;;;3.30;3.00;;;;;;;-0.86;93.98;102323.38;4942647;29;20365;-71
2023/01/27 10:22:20;;;;;;;4.83;2.77;;;;;;;-0.91;93.92;102324.41;4937286;29;20799;-70
2023/01/27 10:24:45;;;;;;;2.83;2.63;;;;;;;-1.00;93.64;102333.41;4936614;29;20616;-71
2023/01/27 10:27:22;;;;;;;3.53;2.80;;;;;;;-0.98;94.39;102328.97;4936273;29;20267;-70
2023/01/27 10:30:13;;;;;;;4.50;2.70;;;;;;;-0.99;94.19;102332.50;4936447;29;20031;-70
2023/01/27 10:33:08;;;;;;;3.60;3.30;;;;;;;-1.19;94.31;102327.91;4893316;29;20272;-70
2023/01/27 10:36:08;;;;;;;3.10;2.70;;;;;;;-1.32;94.84;102337.06;4911322;29;20890;-68
2023/01/27 10:38:36;;;;;;;3.83;3.43;;;;;;;-1.33;95.88;102348.41;4936164;29;20660;-70
2023/01/27 10:41:27;;;;;;;3.50;3.20;;;;;;;-1.24;96.35;102342.88;4936517;29;20267;-71
2023/01/27 10:44:03;;;;;;;5.03;3.27;;;;;;;-1.24;95.90;102348.13;4936537;29;20280;-70
2023/01/27 10:46:43;;;;;;;3.23;2.93;;;;;;;-1.10;95.75;102351.16;4936868;29;20298;-70
2023/01/27 10:49:29;;;;;;;4.87;3.57;;;;;;;-1.15;94.83;102336.53;4939736;29;20270;-70
2023/01/27 10:52:16;;;;;;;3.40;3.10;;;;;;;-1.05;95.24;102354.47;4936778;29;20263;-70
2023/01/27 10:54:52;;;;;;;3.37;3.07;;;;;;;-1.03;94.10;102357.91;4938444;29;20767;-69
2023/01/27 10:57:47;;;;;;;4.67;2.93;;;;;;;-1.10;94.35;102330.25;4924003;29;20283;-72
2023/01/27 11:00:39;;;;;;;3.77;3.10;;;;;;;-0.88;93.49;102350.44;4947596;29;20264;-71
2023/01/27 11:03:14;;;;;;;3.47;3.00;;;;;;;-0.86;93.90;102351.28;4929770;29;20347;-71
2023/01/27 11:05:44;;;;;;;3.97;3.50;;;;;;;-0.91;93.49;102347.94;4921603;29;20299;-72
2023/01/27 11:08:16;;;;;;;3.30;3.00;;;;;;;-0.95;94.30;102349.81;4938459;29;20307;-71
2023/01/27 11:13:31;;;;;;;4.25;3.33;;;;;;;-1.11;94.74;102346.84;4936536;29;20268;-72
2023/01/27 11:15:59;;;;;;;3.27;2.97;;;;;;;-1.15;94.24;102347.84;4937316;29;20036;-71
2023/01/27 11:21:41;;;;;;;6.83;3.67;;;;;;;-1.18;95.05;102355.75;4928138;29;20369;-72
2023/01/27 11:24:20;;;;;;;4.20;3.70;;;;;;;-1.23;94.97;102344.59;4938883;29;20752;-71
2023/01/27 11:26:55;;;;;;;3.67;3.37;;;;;;;-1.19;94.15;102351.44;4944381;29;20037;-72
2023/01/27 11:29:52;;;;;;;4.87;4.20;;;;;;;-1.14;94.94;102370.47;4943853;29;20271;-69
2023/01/27 11:32:33;;;;;;;4.37;3.83;;;;;;;-1.20;94.01;102368.03;4919299;29;20260;-69
2023/01/27 11:35:39;;;;;;;6.23;4.73;;;;;;;-1.19;94.12;102367.13;4924677;29;20416;-73
2023/01/27 11:38:17;;;;;;;5.57;4.63;;;;;;;-1.17;94.74;102378.38;4925794;29;20259;-76
2023/01/27 11:40:49;;;;;;;5.20;4.70;;;;;;;-1.22;94.32;102376.81;4941756;29;20268;-73
2023/01/27 11:43:28;;;;;;;9.43;5.15;;;;;;;-1.21;94.53;102376.78;4928915;29;20276;-72
2023/01/27 11:46:14;;;;;;;8.47;6.13;;;;;;;-1.16;94.46;102376.63;4918600;29;20132;-76
2023/01/27 11:48:46;;;;;;;12.77;4.80;;;;;;;-1.13;94.29;102387.88;4902507;29;20268;-71
2023/01/27 11:51:24;;;;;;;7.33;5.17;;;;;;;-1.21;94.26;102389.00;4919715;29;20272;-71
2023/01/27 11:54:08;;;;;;;5.35;4.88;;;;;;;-1.21;94.47;102379.38;4900110;29;20296;-71
2023/01/27 11:56:36;;;;;;;6.57;5.97;;;;;;;-1.18;94.80;102383.66;4900253;29;20036;-70
2023/01/27 11:59:12;;;;;;;6.23;5.47;;;;;;;-1.18;94.69;102389.75;4920068;29;20260;-72
2023/01/27 12:01:54;;;;;;;6.43;5.10;;;;;;;-1.42;95.02;102361.78;4918780;29;20332;-70
2023/01/27 12:04:37;;;;;;;5.87;4.60;;;;;;;-1.22;94.25;102395.97;4903666;29;20275;-68
2023/01/27 12:07:19;;;;;;;5.40;4.90;;;;;;;-1.37;94.09;102399.06;4921125;29;20260;-71
2023/01/27 12:09:48;;;;;;;5.43;4.63;;;;;;;-1.49;94.87;102394.19;4920935;29;20256;-69
2023/01/27 12:12:26;;;;;;;5.30;4.40;;;;;;;-1.59;95.58;102399.69;4924625;29;20283;-71
2023/01/27 12:15:03;;;;;;;10.40;6.10;;;;;;;-1.65;96.58;102393.81;4897621;29;20039;-72